createdAt,value
2023-01-30T00:01:03.718Z,-0.55
2023-01-30T00:03:30.976Z,-0.56
2023-01-30T00:05:57.423Z,-0.55
2023-01-30T00:08:24.006Z,-0.50
2023-01-30T00:10:50.516Z,-0.49
2023-01-30T00:13:17.195Z,-0.45
2023-01-30T00:15:44.034Z,-0.49
2023-01-30T00:18:10.610Z,-0.49
2023-01-30T00:20:37.119Z,-0.51
2023-01-30T00:23:04.070Z,-0.48
2023-01-30T00:25:31.636Z,-0.45
2023-01-30T00:28:01.799Z,-0.44
2023-01-30T00:30:28.965Z,-0.41
2023-01-30T00:32:59.072Z,-0.39
2023-01-30T00:35:28.620Z,-0.38
2023-01-30T00:37:58.866Z,-0.38
2023-01-30T00:40:26.994Z,-0.38
2023-01-30T00:43:12.723Z,-0.36
2023-01-30T00:45:59.991Z,-0.36
2023-01-30T00:48:26.583Z,-0.37
2023-01-30T00:50:53.099Z,-0.33
2023-01-30T00:53:19.510Z,-0.35
2023-01-30T00:55:46.011Z,-0.30
2023-01-30T00:58:13.462Z,-0.37
2023-01-30T01:00:40.381Z,-0.38
2023-01-30T01:03:08.016Z,-0.29
2023-01-30T01:05:34.629Z,-0.27
2023-01-30T01:08:01.288Z,-0.27
2023-01-30T01:10:27.847Z,-0.19
2023-01-30T01:12:54.319Z,-0.22
2023-01-30T01:15:22.598Z,-0.24
2023-01-30T01:17:49.756Z,-0.14
2023-01-30T01:20:16.887Z,-0.14
2023-01-30T01:22:43.488Z,-0.10
2023-01-30T01:25:10.699Z,-0.14
2023-01-30T01:27:38.403Z,-0.14
2023-01-30T01:30:05.982Z,-0.12
2023-01-30T01:32:32.750Z,-0.16
2023-01-30T01:34:59.246Z,-0.11
2023-01-30T01:37:25.772Z,-0.17
2023-01-30T01:40:10.871Z,-0.18
2023-01-30T01:42:38.740Z,-0.19
2023-01-30T01:45:18.014Z,-0.18
2023-01-30T01:48:40.666Z,-0.08
2023-01-30T01:51:15.030Z,-0.07
2023-01-30T01:53:49.504Z,-0.03
2023-01-30T01:56:18.524Z,-0.05
2023-01-30T01:58:48.191Z,-0.02
2023-01-30T02:01:14.942Z,-0.04
2023-01-30T02:03:45.823Z,-0.04
2023-01-30T02:06:13.878Z,0.12
2023-01-30T02:08:44.964Z,-0.09
2023-01-30T02:11:17.714Z,-0.01
2023-01-30T02:13:45.469Z,-0.12
2023-01-30T02:16:12.008Z,-0.13
2023-01-30T02:18:41.574Z,-0.07
2023-01-30T02:21:51.522Z,-0.02
2023-01-30T02:24:42.212Z,0.10
2023-01-30T02:27:14.975Z,0.05
2023-01-30T02:30:06.725Z,0.02
2023-01-30T02:32:34.696Z,-0.06
2023-01-30T02:35:05.582Z,-0.01
2023-01-30T02:38:01.395Z,0.06
2023-01-30T02:40:44.513Z,0.08
2023-01-30T02:43:28.242Z,0.19
2023-01-30T02:46:08.932Z,0.25
2023-01-30T02:48:53.845Z,0.32
2023-01-30T02:51:23.953Z,0.31
2023-01-30T02:53:51.050Z,0.38
2023-01-30T02:56:18.067Z,0.48
2023-01-30T02:58:49.446Z,0.46
2023-01-30T03:01:39.942Z,0.52
2023-01-30T03:04:18.440Z,0.54
2023-01-30T03:07:22.691Z,0.67
2023-01-30T03:10:21.695Z,0.61
2023-01-30T03:12:52.990Z,0.71
2023-01-30T03:15:27.631Z,0.74
2023-01-30T03:17:54.737Z,0.76
2023-01-30T03:20:22.056Z,0.80
2023-01-30T03:22:48.864Z,0.82
2023-01-30T03:25:19.643Z,0.90
2023-01-30T03:27:46.559Z,0.98
2023-01-30T03:30:13.759Z,0.97
2023-01-30T03:32:40.265Z,1.15
2023-01-30T03:35:07.140Z,1.14
2023-01-30T03:37:33.903Z,1.10
2023-01-30T03:40:00.641Z,1.11
2023-01-30T03:42:27.211Z,1.06
2023-01-30T03:44:53.637Z,1.10
2023-01-30T03:47:20.136Z,1.12
2023-01-30T03:49:46.726Z,1.20
2023-01-30T03:52:13.244Z,1.19
2023-01-30T03:54:39.648Z,1.21
2023-01-30T03:57:06.114Z,1.25
2023-01-30T03:59:32.614Z,1.30
2023-01-30T04:01:59.096Z,1.31
2023-01-30T04:04:25.452Z,1.43
2023-01-30T04:06:51.878Z,1.42
2023-01-30T04:09:18.366Z,1.46
2023-01-30T04:11:44.922Z,1.43
2023-01-30T04:14:11.467Z,1.47
2023-01-30T04:16:38.146Z,1.58
2023-01-30T04:19:04.649Z,1.60
2023-01-30T04:21:31.030Z,1.66
2023-01-30T04:23:57.449Z,1.59
2023-01-30T04:26:24.030Z,1.52
2023-01-30T04:28:50.460Z,1.54
2023-01-30T04:31:17.041Z,1.58
2023-01-30T04:33:43.558Z,1.58
2023-01-30T04:36:10.772Z,1.60
2023-01-30T04:38:37.742Z,1.71
2023-01-30T04:41:04.432Z,1.75
2023-01-30T04:43:31.304Z,1.77
2023-01-30T04:45:57.762Z,1.79
2023-01-30T04:48:25.495Z,1.86
2023-01-30T04:50:54.642Z,1.91
2023-01-30T04:53:21.525Z,1.94
2023-01-30T04:55:48.268Z,2.00
2023-01-30T04:58:15.677Z,2.09
2023-01-30T05:00:42.489Z,2.09
2023-01-30T05:03:08.927Z,2.12
2023-01-30T05:05:35.297Z,2.17
2023-01-30T05:08:02.179Z,2.15
2023-01-30T05:10:29.054Z,2.24
2023-01-30T05:12:55.560Z,2.21
2023-01-30T05:15:21.995Z,2.20
2023-01-30T05:17:48.459Z,2.29
2023-01-30T05:20:15.093Z,2.26
2023-01-30T05:22:41.546Z,2.26
2023-01-30T05:25:09.204Z,2.26
2023-01-30T05:27:35.755Z,2.22
2023-01-30T05:30:02.207Z,2.19
2023-01-30T05:32:31.081Z,2.19
2023-01-30T05:34:57.619Z,2.21
2023-01-30T05:37:24.654Z,2.28
2023-01-30T05:39:51.379Z,2.27
2023-01-30T05:42:17.844Z,2.34
2023-01-30T05:44:44.584Z,2.43
2023-01-30T05:47:11.397Z,2.39
2023-01-30T05:49:38.292Z,2.45
2023-01-30T05:52:05.005Z,2.43
2023-01-30T05:54:31.394Z,2.37
2023-01-30T05:56:57.809Z,2.41
2023-01-30T05:59:24.293Z,2.47
2023-01-30T06:01:50.909Z,2.50
2023-01-30T06:04:17.479Z,2.51
2023-01-30T06:06:43.865Z,2.51
2023-01-30T06:09:10.599Z,2.55
2023-01-30T06:11:37.334Z,2.58
2023-01-30T06:14:03.783Z,2.58
2023-01-30T06:16:30.853Z,2.53
2023-01-30T06:18:57.361Z,2.61
2023-01-30T06:21:23.799Z,2.60
2023-01-30T06:23:50.245Z,2.53
2023-01-30T06:26:16.771Z,2.55
2023-01-30T06:28:43.447Z,2.58
2023-01-30T06:31:10.021Z,2.60
2023-01-30T06:33:36.792Z,2.64
2023-01-30T06:36:03.673Z,2.63
2023-01-30T06:38:30.128Z,2.65
2023-01-30T06:40:56.578Z,2.66
2023-01-30T06:43:22.980Z,2.60
2023-01-30T06:45:49.414Z,2.61
2023-01-30T06:48:15.891Z,2.59
2023-01-30T06:50:42.326Z,2.60
2023-01-30T06:53:08.938Z,2.53
2023-01-30T06:55:35.979Z,2.53
2023-01-30T06:58:04.526Z,2.48
2023-01-30T07:00:31.526Z,2.44
2023-01-30T07:02:57.988Z,2.42
2023-01-30T07:05:24.509Z,2.34
2023-01-30T07:07:50.978Z,2.27
2023-01-30T07:10:17.767Z,2.28
2023-01-30T07:12:46.453Z,2.20
2023-01-30T07:15:13.281Z,2.21
2023-01-30T07:17:41.272Z,2.24
2023-01-30T07:20:09.349Z,2.32
2023-01-30T07:22:35.823Z,2.38
2023-01-30T07:25:02.269Z,2.49
2023-01-30T07:27:28.738Z,2.52
2023-01-30T07:29:55.155Z,2.63
2023-01-30T07:32:21.629Z,2.71
2023-01-30T07:34:48.400Z,2.70
2023-01-30T07:37:15.309Z,2.73
2023-01-30T07:39:41.989Z,2.78
2023-01-30T07:42:08.720Z,2.86
2023-01-30T07:44:35.254Z,2.88
2023-01-30T07:47:01.900Z,2.91
2023-01-30T07:49:28.459Z,2.95
2023-01-30T07:51:54.866Z,2.95
2023-01-30T07:54:21.288Z,2.99
2023-01-30T07:56:47.667Z,3.01
2023-01-30T07:59:14.121Z,3.02
2023-01-30T08:01:40.628Z,3.02
2023-01-30T08:04:07.107Z,2.99
2023-01-30T08:06:38.883Z,2.98
2023-01-30T08:09:06.604Z,3.03
2023-01-30T08:11:33.590Z,3.01
2023-01-30T08:14:00.000Z,3.09
2023-01-30T08:16:26.580Z,3.16
2023-01-30T08:18:53.067Z,3.16
2023-01-30T08:21:19.564Z,3.00
2023-01-30T08:23:45.990Z,2.93
2023-01-30T08:26:12.456Z,2.92
2023-01-30T08:28:39.374Z,2.83
2023-01-30T08:31:10.431Z,2.80
2023-01-30T08:33:36.956Z,2.84
2023-01-30T08:36:03.516Z,2.84
2023-01-30T08:38:29.939Z,2.89
2023-01-30T08:40:58.012Z,2.84
2023-01-30T08:43:24.420Z,2.87
2023-01-30T08:45:54.343Z,2.99
2023-01-30T08:48:20.767Z,3.08
2023-01-30T08:50:47.339Z,3.13
2023-01-30T08:53:14.154Z,3.17
2023-01-30T08:55:40.585Z,3.29
2023-01-30T08:58:07.001Z,3.30
2023-01-30T09:00:33.420Z,3.39
2023-01-30T09:03:00.554Z,3.38
2023-01-30T09:05:27.029Z,3.50
2023-01-30T09:07:53.506Z,3.54
2023-01-30T09:10:20.221Z,3.56
2023-01-30T09:12:46.960Z,3.55
2023-01-30T09:15:13.831Z,3.59
2023-01-30T09:17:40.358Z,3.57
2023-01-30T09:20:11.213Z,3.64
2023-01-30T09:22:38.268Z,3.71
2023-01-30T09:25:05.835Z,3.74
2023-01-30T09:27:32.719Z,3.79
2023-01-30T09:29:59.151Z,3.85
2023-01-30T09:32:25.616Z,3.90
2023-01-30T09:34:52.097Z,3.95
2023-01-30T09:37:18.579Z,3.90
2023-01-30T09:39:44.989Z,3.82
2023-01-30T09:42:23.696Z,3.85
2023-01-30T09:45:05.327Z,3.81
2023-01-30T09:48:05.553Z,3.94
2023-01-30T09:50:53.847Z,4.03
2023-01-30T09:53:51.212Z,4.25
2023-01-30T09:56:17.852Z,4.46
2023-01-30T09:58:58.766Z,4.60
2023-01-30T10:01:53.334Z,5.01
2023-01-30T10:04:43.881Z,6.50
2023-01-30T10:07:32.229Z,7.33
2023-01-30T10:10:29.779Z,7.45
2023-01-30T10:13:03.142Z,7.47
2023-01-30T10:15:47.962Z,6.54
2023-01-30T10:18:21.645Z,6.12
2023-01-30T10:21:25.309Z,5.76
2023-01-30T10:24:07.720Z,5.62
2023-01-30T10:26:34.616Z,5.66
2023-01-30T10:29:21.628Z,7.03
2023-01-30T10:32:05.093Z,7.02
2023-01-30T10:34:33.065Z,6.29
2023-01-30T10:37:02.476Z,5.86
2023-01-30T10:39:55.532Z,5.62
2023-01-30T10:42:34.740Z,5.54
2023-01-30T10:45:20.625Z,6.05
2023-01-30T10:48:00.231Z,6.48
2023-01-30T10:50:36.851Z,6.14
2023-01-30T10:53:17.307Z,5.65
2023-01-30T10:55:48.932Z,5.17
2023-01-30T10:58:41.286Z,4.76
2023-01-30T11:01:32.258Z,4.71
2023-01-30T11:04:15.320Z,4.60
2023-01-30T11:06:42.199Z,4.41
2023-01-30T11:09:08.853Z,4.43
2023-01-30T11:11:48.617Z,4.57
2023-01-30T11:14:15.422Z,5.10
2023-01-30T11:16:50.587Z,5.03
2023-01-30T11:19:21.978Z,5.05
2023-01-30T11:21:51.964Z,4.83
2023-01-30T11:24:24.677Z,4.65
2023-01-30T11:26:53.104Z,4.48
2023-01-30T11:29:28.603Z,4.36
2023-01-30T11:31:55.910Z,4.34
2023-01-30T11:34:23.773Z,4.21
2023-01-30T11:36:50.696Z,4.24
2023-01-30T11:39:21.090Z,4.21
2023-01-30T11:41:53.748Z,4.33
2023-01-30T11:44:29.811Z,4.37
2023-01-30T11:47:02.644Z,4.28
2023-01-30T11:50:00.634Z,4.35
2023-01-30T11:52:24.874Z,4.34
2023-01-30T11:54:52.280Z,4.28
2023-01-30T11:57:20.142Z,4.25
2023-01-30T11:59:55.760Z,4.26
2023-01-30T12:02:30.151Z,4.27
2023-01-30T12:05:17.071Z,4.27
2023-01-30T12:07:46.633Z,4.36
2023-01-30T12:10:31.397Z,4.40
2023-01-30T12:13:04.792Z,4.34
2023-01-30T12:15:35.292Z,4.22
2023-01-30T12:18:14.384Z,4.36
2023-01-30T12:20:58.932Z,4.60
2023-01-30T12:23:47.312Z,4.98
2023-01-30T12:26:35.424Z,5.78
2023-01-30T12:29:27.193Z,6.23
2023-01-30T12:32:06.560Z,5.78
2023-01-30T12:34:33.213Z,5.50
2023-01-30T12:37:18.017Z,5.33
2023-01-30T12:39:58.063Z,5.09
2023-01-30T12:43:06.384Z,5.08
2023-01-30T12:45:34.717Z,5.54
2023-01-30T12:48:13.313Z,5.77
2023-01-30T12:51:07.098Z,6.25
2023-01-30T12:53:38.966Z,7.02
2023-01-30T12:56:21.501Z,6.50
2023-01-30T12:59:15.031Z,5.91
2023-01-30T13:01:58.321Z,5.30
2023-01-30T13:04:34.471Z,5.18
2023-01-30T13:07:17.039Z,5.01
2023-01-30T13:10:02.006Z,5.40
2023-01-30T13:12:43.250Z,6.54
2023-01-30T13:15:25.725Z,7.60
2023-01-30T13:18:20.971Z,7.52
2023-01-30T13:20:55.295Z,7.26
2023-01-30T13:23:31.708Z,7.34
2023-01-30T13:26:05.694Z,8.08
2023-01-30T13:28:40.180Z,8.08
2023-01-30T13:31:10.296Z,8.77
2023-01-30T13:33:39.312Z,9.05
2023-01-30T13:36:11.556Z,8.56
2023-01-30T13:38:42.146Z,8.71
2023-01-30T13:41:10.022Z,7.91
2023-01-30T13:43:39.096Z,7.48
2023-01-30T13:46:11.275Z,8.32
2023-01-30T13:49:03.091Z,7.97
2023-01-30T13:51:42.248Z,8.30
2023-01-30T13:54:42.977Z,8.35
2023-01-30T13:57:27.877Z,8.03
2023-01-30T14:00:25.987Z,7.85
2023-01-30T14:03:07.833Z,7.37
2023-01-30T14:05:57.335Z,6.80
2023-01-30T14:08:29.305Z,6.58
2023-01-30T14:10:56.872Z,6.29
2023-01-30T14:13:25.268Z,6.23
2023-01-30T14:16:04.351Z,6.16
2023-01-30T14:18:34.052Z,6.13
2023-01-30T14:21:12.560Z,6.29
2023-01-30T14:23:40.041Z,6.39
2023-01-30T14:26:06.441Z,6.13
2023-01-30T14:28:32.842Z,6.05
2023-01-30T14:31:01.583Z,6.11
2023-01-30T14:33:31.962Z,5.84
2023-01-30T14:35:58.536Z,5.71
2023-01-30T14:38:30.786Z,5.52
2023-01-30T14:41:00.296Z,5.42
2023-01-30T14:43:42.432Z,5.21
2023-01-30T14:46:17.955Z,5.19
2023-01-30T14:48:54.412Z,5.12
2023-01-30T14:51:24.839Z,5.05
2023-01-30T14:53:57.954Z,5.01
2023-01-30T14:56:45.482Z,5.06
2023-01-30T14:59:21.231Z,4.98
2023-01-30T15:02:07.418Z,4.99
2023-01-30T15:04:56.007Z,4.94
2023-01-30T15:07:26.995Z,4.95
2023-01-30T15:09:57.699Z,4.93
2023-01-30T15:12:47.956Z,4.83
2023-01-30T15:15:32.757Z,4.83
2023-01-30T15:18:11.900Z,4.81
2023-01-30T15:21:02.316Z,4.70
2023-01-30T15:24:00.526Z,4.70
2023-01-30T15:27:19.422Z,4.67
2023-01-30T15:29:56.012Z,4.63
2023-01-30T15:32:30.362Z,4.57
2023-01-30T15:35:02.886Z,4.52
2023-01-30T15:37:37.497Z,4.52
2023-01-30T15:40:16.305Z,4.43
2023-01-30T15:43:00.777Z,4.25
2023-01-30T15:45:42.272Z,4.13
2023-01-30T15:48:25.985Z,4.08
2023-01-30T15:50:58.079Z,3.99
2023-01-30T15:53:32.481Z,3.92
2023-01-30T15:56:02.212Z,3.82
2023-01-30T15:58:33.189Z,3.72
2023-01-30T16:01:02.158Z,3.66
2023-01-30T16:03:33.317Z,3.63
2023-01-30T16:06:00.823Z,3.59
2023-01-30T16:08:30.222Z,3.57
2023-01-30T16:10:57.257Z,3.53
2023-01-30T16:17:45.335Z,3.47
2023-01-30T16:20:15.825Z,3.52
2023-01-30T16:22:44.163Z,3.53
2023-01-30T16:25:22.085Z,3.55
2023-01-30T16:27:51.036Z,3.52
2023-01-30T16:30:26.320Z,3.55
2023-01-30T16:32:54.829Z,3.55
2023-01-30T16:35:27.165Z,3.61
2023-01-30T16:37:56.911Z,3.60
2023-01-30T16:40:30.888Z,3.59
2023-01-30T16:43:17.259Z,3.65
2023-01-30T16:45:53.014Z,3.74
2023-01-30T16:48:19.702Z,3.83
2023-01-30T16:50:47.519Z,3.87
2023-01-30T16:53:16.496Z,3.95
2023-01-30T16:55:56.146Z,4.01
2023-01-30T16:58:22.783Z,4.04
2023-01-30T17:00:53.233Z,4.03
2023-01-30T17:03:23.491Z,4.01
2023-01-30T17:05:50.404Z,4.02
2023-01-30T17:08:48.061Z,4.00
2023-01-30T17:11:37.846Z,4.01
2023-01-30T17:14:17.885Z,3.97
2023-01-30T17:16:46.210Z,3.98
2023-01-30T17:19:13.888Z,3.99
2023-01-30T17:21:49.640Z,3.95
2023-01-30T17:24:18.331Z,3.91
2023-01-30T17:26:45.472Z,3.90
2023-01-30T17:29:23.583Z,3.86
2023-01-30T17:32:00.952Z,3.81
2023-01-30T17:34:28.883Z,3.81
2023-01-30T17:36:55.996Z,3.85
2023-01-30T17:39:25.946Z,3.87
2023-01-30T17:41:52.627Z,3.85
2023-01-30T17:44:19.078Z,3.89
2023-01-30T17:46:49.314Z,3.87
2023-01-30T17:49:21.580Z,3.84
2023-01-30T17:51:48.272Z,3.86
2023-01-30T17:54:20.485Z,3.79
2023-01-30T17:56:49.204Z,3.77
2023-01-30T17:59:20.363Z,3.72
2023-01-30T18:01:50.758Z,3.69
2023-01-30T18:04:18.188Z,3.65
2023-01-30T18:06:53.515Z,3.69
2023-01-30T18:09:22.461Z,3.71
2023-01-30T18:11:49.647Z,3.72
2023-01-30T18:14:16.433Z,3.78
2023-01-30T18:16:43.759Z,3.84
2023-01-30T18:19:12.776Z,3.89
2023-01-30T18:21:40.182Z,3.91
2023-01-30T18:24:07.438Z,3.90
2023-01-30T18:26:34.215Z,3.89
2023-01-30T18:29:00.785Z,3.94
2023-01-30T18:31:31.130Z,4.01
2023-01-30T18:33:57.772Z,4.08
2023-01-30T18:36:24.758Z,4.05
2023-01-30T18:38:51.767Z,4.00
2023-01-30T18:41:21.276Z,4.04
2023-01-30T18:43:52.954Z,4.04
2023-01-30T18:46:19.445Z,4.08
2023-01-30T18:48:46.833Z,4.08
2023-01-30T18:51:16.175Z,4.11
2023-01-30T18:53:43.040Z,4.08
2023-01-30T18:56:11.551Z,4.08
2023-01-30T18:58:38.041Z,4.13
2023-01-30T19:01:16.750Z,4.15
2023-01-30T19:03:43.878Z,4.13
2023-01-30T19:06:11.998Z,4.15
2023-01-30T19:08:38.908Z,4.24
2023-01-30T19:11:26.860Z,4.20
2023-01-30T19:13:54.262Z,4.22
2023-01-30T19:16:22.189Z,4.27
2023-01-30T19:18:49.709Z,4.27
2023-01-30T19:21:19.164Z,4.35
2023-01-30T19:23:46.050Z,4.35
2023-01-30T19:26:12.825Z,4.42
2023-01-30T19:28:41.685Z,4.40
2023-01-30T19:31:09.395Z,4.40
2023-01-30T19:33:36.126Z,4.43
2023-01-30T19:36:13.701Z,4.50
2023-01-30T19:38:40.784Z,4.50
2023-01-30T19:41:12.121Z,4.50
2023-01-30T19:43:39.012Z,4.55
2023-01-30T19:46:06.089Z,4.61
2023-01-30T19:48:33.586Z,4.64
2023-01-30T19:51:02.732Z,4.63
2023-01-30T19:53:29.436Z,4.68
2023-01-30T19:55:56.265Z,4.70
2023-01-30T19:58:22.690Z,4.73
2023-01-30T20:00:50.182Z,4.72
2023-01-30T20:03:16.677Z,4.74
2023-01-30T20:05:43.382Z,4.77
2023-01-30T20:08:21.742Z,4.82
2023-01-30T20:11:01.828Z,4.83
2023-01-30T20:13:28.289Z,4.85
2023-01-30T20:15:56.524Z,4.82
2023-01-30T20:18:22.981Z,4.82
2023-01-30T20:20:49.427Z,4.85
2023-01-30T20:23:17.546Z,4.84
2023-01-30T20:25:46.482Z,4.85
2023-01-30T20:28:13.127Z,4.82
2023-01-30T20:30:40.234Z,4.81
2023-01-30T20:33:06.839Z,4.84
2023-01-30T20:35:34.755Z,4.77
2023-01-30T20:38:02.136Z,4.81
2023-01-30T20:40:28.658Z,4.80
2023-01-30T20:42:55.153Z,4.81
2023-01-30T20:45:21.872Z,4.80
2023-01-30T20:47:48.325Z,4.74
2023-01-30T20:50:14.922Z,4.68
2023-01-30T20:52:42.562Z,4.59
2023-01-30T20:55:09.421Z,4.55
2023-01-30T20:57:35.993Z,4.47
2023-01-30T21:00:04.403Z,4.45
2023-01-30T21:02:30.938Z,4.53
2023-01-30T21:04:57.325Z,4.47
2023-01-30T21:07:23.766Z,4.50
2023-01-30T21:09:50.201Z,4.52
2023-01-30T21:12:16.733Z,4.44
2023-01-30T21:14:43.117Z,4.37
2023-01-30T21:17:09.627Z,4.33
2023-01-30T21:19:38.159Z,4.30
2023-01-30T21:22:10.545Z,4.43
2023-01-30T21:24:39.259Z,4.50
2023-01-30T21:27:06.014Z,4.56
2023-01-30T21:29:32.621Z,4.58
2023-01-30T21:31:59.910Z,4.61
2023-01-30T21:34:26.583Z,4.63
2023-01-30T21:37:11.718Z,4.64
2023-01-30T21:39:56.834Z,4.66
2023-01-30T21:42:41.719Z,4.66
2023-01-30T21:45:08.483Z,4.55
2023-01-30T21:47:34.896Z,4.44
2023-01-30T21:50:01.419Z,4.17
2023-01-30T21:52:27.791Z,3.96
2023-01-30T21:54:54.321Z,3.85
2023-01-30T21:57:20.717Z,3.77
2023-01-30T21:59:47.100Z,3.72
2023-01-30T22:02:13.492Z,3.74
2023-01-30T22:04:40.079Z,3.68
2023-01-30T22:07:06.993Z,3.66
2023-01-30T22:09:33.749Z,3.70
2023-01-30T22:12:00.286Z,3.74
2023-01-30T22:14:26.803Z,3.80
2023-01-30T22:16:53.307Z,3.79
2023-01-30T22:19:19.738Z,3.78
2023-01-30T22:21:46.121Z,3.78
2023-01-30T22:24:12.646Z,3.75
2023-01-30T22:26:39.603Z,3.75
2023-01-30T22:29:06.535Z,3.81
2023-01-30T22:31:38.600Z,3.74
2023-01-30T22:34:05.243Z,3.75
2023-01-30T22:36:33.310Z,3.77
2023-01-30T22:38:59.880Z,3.72
2023-01-30T22:41:28.037Z,3.66
2023-01-30T22:43:56.937Z,3.64
2023-01-30T22:46:25.487Z,3.65
2023-01-30T22:48:52.344Z,3.63
2023-01-30T22:51:21.878Z,3.59
2023-01-30T22:53:54.016Z,3.55
2023-01-30T22:56:23.896Z,3.42
2023-01-30T22:58:50.914Z,3.41
2023-01-30T23:01:25.731Z,3.40
2023-01-30T23:03:58.164Z,3.34
2023-01-30T23:06:25.268Z,3.42
2023-01-30T23:08:53.549Z,3.46
2023-01-30T23:11:30.728Z,3.52
2023-01-30T23:14:00.100Z,3.57
2023-01-30T23:16:27.740Z,3.64
2023-01-30T23:18:58.483Z,3.62
2023-01-30T23:21:40.313Z,3.68
2023-01-30T23:24:12.110Z,3.76
2023-01-30T23:26:41.074Z,3.81
2023-01-30T23:29:09.473Z,3.82
2023-01-30T23:31:36.851Z,3.79
2023-01-30T23:34:06.206Z,3.70
2023-01-30T23:36:33.037Z,3.66
2023-01-30T23:39:00.103Z,3.57
2023-01-30T23:41:29.171Z,3.52
2023-01-30T23:43:56.980Z,3.42
2023-01-30T23:46:29.086Z,3.29
2023-01-30T23:49:00.659Z,3.25
2023-01-30T23:51:28.962Z,3.16
2023-01-30T23:53:55.639Z,3.11
2023-01-30T23:56:24.154Z,3.08
2023-01-30T23:58:51.192Z,3.11
